Coopersville, Michigan
Current Conditions -  °F | °C
As of 1:55 AM on Thursday 18 Dec 2014 (Local Time) from KMKG Reporting Station
Overcast Overcast  
Wind Chill: 25°   Ceiling: 1900
Heat Index: 32°   Visibility: 10mi
Dew Point: 24°   Wind: 8mph
Humidity: 73%   Direction: 320°NW
Pressure: 30.22"   Gusts: NA
Location:  43.06°N, 85.93°W
Report Text: KMKG 180655Z AUTO 32007KT 10SM OVC019 00/M04 A3022 RMK AO2 SLP242 T00001044
Loading
Personal Weather Stations






























Interactive Weather Map New forecast layout! Learn more

10-Day Weather Forecast

Advertisements
Track Severe Weather on mobile